Time;durP1;ratioP1;P1;durP2;ratioP2;P2;SDS_P1;SDS_P2;PMS_P1;PMS_P2;Temp;Humidity;BMP_temperature;BMP_pressure;BME280_temperature;BME280_humidity;BME280_pressure;Samples;Min_cycle;Max_cycle;Signal;HPM_P1;HPM_P2
2023/12/08 00:02:00;;;;;;;40.40;36.33;;;2.70;99.90;;;;;;5011142;28;21016;-64
2023/12/08 00:04:26;;;;;;;30.03;27.33;;;2.60;99.90;;;;;;5011747;28;20457;-66
2023/12/08 00:06:53;;;;;;;31.87;29.07;;;2.60;99.90;;;;;;5011489;28;20932;-67
2023/12/08 00:09:20;;;;;;;27.53;24.67;;;2.60;99.90;;;;;;5011591;28;20557;-67
2023/12/08 00:11:47;;;;;;;20.83;17.53;;;2.70;99.90;;;;;;5011104;28;20454;-67
2023/12/08 00:14:14;;;;;;;19.23;15.87;;;2.80;99.90;;;;;;5011533;28;20969;-67
2023/12/08 00:16:42;;;;;;;24.50;16.90;;;2.80;99.90;;;;;;5011399;28;20459;-67
2023/12/08 00:19:11;;;;;;;25.73;16.20;;;2.80;99.90;;;;;;5011531;28;20455;-67
2023/12/08 00:21:38;;;;;;;17.40;13.00;;;2.90;99.90;;;;;;5011113;28;20488;-67
2023/12/08 00:24:05;;;;;;;21.10;13.40;;;2.90;99.90;;;;;;5011326;28;20939;-67
2023/12/08 00:26:32;;;;;;;18.93;13.53;;;2.90;99.90;;;;;;5011503;28;20542;-67
2023/12/08 00:28:59;;;;;;;20.20;14.40;;;2.90;99.90;;;;;;5011304;28;20462;-67
2023/12/08 00:31:26;;;;;;;18.63;14.10;;;2.90;99.90;;;;;;5010947;28;20539;-67
2023/12/08 00:33:53;;;;;;;20.50;14.37;;;2.90;98.90;;;;;;5011336;28;20467;-67
2023/12/08 00:36:22;;;;;;;18.90;12.43;;;2.90;99.60;;;;;;5011175;28;20875;-67
2023/12/08 00:38:49;;;;;;;19.97;14.87;;;2.90;99.70;;;;;;5011158;28;20447;-67
2023/12/08 00:41:16;;;;;;;21.10;13.37;;;2.90;98.60;;;;;;5010945;28;20472;-67
2023/12/08 00:43:43;;;;;;;20.93;15.40;;;2.90;98.60;;;;;;5014105;28;20481;-67
2023/12/08 00:46:10;;;;;;;21.27;12.57;;;2.90;99.00;;;;;;5014809;28;20455;-67
2023/12/08 00:48:37;;;;;;;18.10;13.47;;;3.00;98.90;;;;;;5014823;28;20456;-67
2023/12/08 00:51:04;;;;;;;19.03;12.47;;;3.00;99.50;;;;;;5014616;28;20452;-67
2023/12/08 00:53:32;;;;;;;17.73;13.17;;;3.00;99.50;;;;;;5014580;28;20457;-67
2023/12/08 00:55:59;;;;;;;18.30;12.60;;;3.00;99.70;;;;;;5014641;28;20535;-67
2023/12/08 00:58:26;;;;;;;24.03;12.40;;;3.00;98.10;;;;;;5014581;28;21017;-67
2023/12/08 01:00:53;;;;;;;18.93;12.53;;;3.00;98.00;;;;;;5014586;28;21080;-67
2023/12/08 01:03:20;;;;;;;19.80;11.77;;;3.10;97.40;;;;;;5014311;28;20465;-67
2023/12/08 01:05:47;;;;;;;17.63;12.30;;;3.10;95.80;;;;;;5014304;28;20825;-67
2023/12/08 01:08:14;;;;;;;22.07;11.57;;;3.10;95.40;;;;;;5014644;28;20506;-67
2023/12/08 01:10:42;;;;;;;20.60;11.63;;;3.10;96.00;;;;;;5014689;28;20454;-67
2023/12/08 01:13:09;;;;;;;22.63;10.70;;;3.10;96.60;;;;;;5014104;28;20458;-67
2023/12/08 01:15:36;;;;;;;16.10;10.60;;;3.10;95.40;;;;;;5014375;28;20544;-67
2023/12/08 01:18:03;;;;;;;17.17;12.10;;;3.10;95.40;;;;;;5014186;28;20455;-67
2023/12/08 01:20:30;;;;;;;20.00;13.90;;;3.20;96.50;;;;;;5014110;28;20542;-67
2023/12/08 01:22:57;;;;;;;17.70;13.23;;;3.10;96.40;;;;;;5014086;28;20509;-67
2023/12/08 01:25:24;;;;;;;19.17;11.90;;;3.10;96.80;;;;;;5014377;28;20511;-67
2023/12/08 01:27:54;;;;;;;18.00;11.53;;;3.10;96.50;;;;;;5014120;28;20458;-67
2023/12/08 01:30:21;;;;;;;19.83;11.93;;;3.10;96.70;;;;;;5014091;28;20460;-67
2023/12/08 01:32:48;;;;;;;21.97;10.70;;;3.10;97.10;;;;;;5013490;28;20457;-67
2023/12/08 01:35:14;;;;;;;19.47;12.50;;;3.20;95.50;;;;;;5013998;28;20459;-67
2023/12/08 01:37:41;;;;;;;20.30;13.20;;;3.20;96.10;;;;;;5013738;28;20458;-67
2023/12/08 01:40:09;;;;;;;21.17;12.33;;;3.20;96.60;;;;;;5014053;28;20542;-67
2023/12/08 01:42:37;;;;;;;18.30;11.83;;;3.20;95.90;;;;;;5013472;28;20501;-67
2023/12/08 01:45:07;;;;;;;18.10;11.97;;;3.20;96.50;;;;;;5013752;28;20955;-67
2023/12/08 01:47:34;;;;;;;20.43;13.30;;;3.20;97.50;;;;;;5013548;28;20539;-67
2023/12/08 01:50:02;;;;;;;20.90;14.43;;;3.10;98.90;;;;;;5013656;28;20455;-67
2023/12/08 01:52:29;;;;;;;17.97;13.93;;;3.10;98.60;;;;;;5013588;28;20597;-67
2023/12/08 01:54:58;;;;;;;17.83;13.40;;;3.10;99.90;;;;;;5012734;28;20544;-67
2023/12/08 01:57:25;;;;;;;19.40;14.27;;;3.00;99.90;;;;;;5013438;28;20960;-67
2023/12/08 01:59:53;;;;;;;20.97;16.07;;;3.00;99.70;;;;;;5013420;28;20457;-67
2023/12/08 02:02:21;;;;;;;21.73;18.17;;;3.00;99.90;;;;;;5013140;28;21022;-65
2023/12/08 02:04:51;;;;;;;26.20;19.93;;;2.90;99.90;;;;;;5013376;28;20460;-65
2023/12/08 02:07:18;;;;;;;30.10;27.50;;;2.90;99.90;;;;;;5013221;28;20516;-65
2023/12/08 02:09:45;;;;;;;36.77;34.00;;;2.90;99.90;;;;;;5013421;28;20485;-65
2023/12/08 02:12:12;;;;;;;41.77;38.33;;;2.80;99.90;;;;;;5012903;28;20453;-65
2023/12/08 02:14:39;;;;;;;47.37;43.77;;;2.80;99.90;;;;;;5013104;28;20477;-65
2023/12/08 02:17:12;;;;;;;58.50;54.87;;;2.80;99.90;;;;;;5013223;28;20457;-65
2023/12/08 02:19:42;;;;;;;56.20;52.70;;;2.80;99.90;;;;;;5013234;28;20438;-65
2023/12/08 02:22:09;;;;;;;54.27;50.77;;;2.90;99.90;;;;;;5012743;28;20489;-65
2023/12/08 02:24:37;;;;;;;46.33;43.07;;;2.80;99.90;;;;;;5013059;28;20552;-65
2023/12/08 02:27:04;;;;;;;46.60;43.30;;;2.80;99.90;;;;;;5012664;28;20459;-65
2023/12/08 02:29:31;;;;;;;42.73;39.70;;;2.80;99.90;;;;;;5013080;28;20462;-65
2023/12/08 02:32:01;;;;;;;40.27;37.07;;;2.80;99.90;;;;;;5012704;28;20962;-65
2023/12/08 02:34:31;;;;;;;39.70;36.50;;;2.80;99.90;;;;;;5013057;28;20517;-65
2023/12/08 02:37:00;;;;;;;35.87;33.17;;;2.80;99.90;;;;;;5013008;28;20542;-65
2023/12/08 02:39:28;;;;;;;36.40;33.30;;;2.80;99.90;;;;;;5012675;28;20970;-65
2023/12/08 02:41:56;;;;;;;40.10;37.10;;;2.90;99.90;;;;;;5012347;28;21007;-65
2023/12/08 02:44:23;;;;;;;45.90;42.30;;;2.80;99.90;;;;;;5012879;28;20465;-65
2023/12/08 02:46:50;;;;;;;43.50;40.77;;;2.90;99.90;;;;;;5012611;28;20491;-65
2023/12/08 02:49:17;;;;;;;43.53;40.10;;;2.80;99.90;;;;;;5012580;28;20964;-65
2023/12/08 02:51:44;;;;;;;34.10;31.30;;;2.80;99.90;;;;;;5012303;28;20481;-65
2023/12/08 02:54:11;;;;;;;36.73;33.83;;;2.80;99.90;;;;;;5012391;28;20454;-64
2023/12/08 02:56:38;;;;;;;28.43;25.30;;;2.80;99.90;;;;;;5012318;28;20914;-65
2023/12/08 02:59:06;;;;;;;25.07;22.47;;;2.90;99.90;;;;;;5012343;28;20459;-64
2023/12/08 03:01:33;;;;;;;22.00;19.57;;;2.90;99.90;;;;;;5012188;28;21026;-65
2023/12/08 03:04:00;;;;;;;23.00;20.00;;;2.90;99.90;;;;;;5012563;28;20823;-64
2023/12/08 03:06:26;;;;;;;25.63;23.10;;;2.90;99.90;;;;;;5011943;28;20839;-64
2023/12/08 03:08:54;;;;;;;25.17;22.67;;;2.90;99.90;;;;;;5012172;28;20467;-64
2023/12/08 03:11:21;;;;;;;22.83;20.53;;;2.90;99.90;;;;;;5012291;28;20526;-64
2023/12/08 03:13:47;;;;;;;28.43;25.70;;;2.90;99.90;;;;;;5012374;28;20452;-64
2023/12/08 03:16:16;;;;;;;34.07;31.17;;;2.80;99.90;;;;;;5012229;28;20457;-64
2023/12/08 03:18:43;;;;;;;55.00;51.50;;;2.80;99.90;;;;;;5012041;28;20943;-64
2023/12/08 03:21:09;;;;;;;56.93;53.33;;;2.70;99.90;;;;;;5012295;28;20488;-64
2023/12/08 03:23:36;;;;;;;81.53;76.97;;;2.70;99.90;;;;;;5012255;28;20481;-64
2023/12/08 03:26:04;;;;;;;132.17;125.77;;;2.70;99.90;;;;;;5012065;28;20822;-64
2023/12/08 03:28:31;;;;;;;184.57;176.97;;;2.60;99.90;;;;;;5011944;28;21012;-64
2023/12/08 03:30:58;;;;;;;276.40;266.63;;;2.60;99.90;;;;;;5012047;28;20456;-64
2023/12/08 03:33:26;;;;;;;363.80;350.80;;;2.60;99.90;;;;;;5011553;28;20463;-64
2023/12/08 03:35:53;;;;;;;380.73;366.97;;;2.50;99.90;;;;;;5011575;28;20455;-64
2023/12/08 03:38:20;;;;;;;447.97;430.97;;;2.50;99.90;;;;;;5011850;28;20463;-63
2023/12/08 03:40:47;;;;;;;482.40;464.17;;;2.50;99.90;;;;;;5012006;28;20462;-64
2023/12/08 03:43:13;;;;;;;552.90;531.17;;;2.50;99.90;;;;;;5011513;28;20579;-64
2023/12/08 03:45:40;;;;;;;611.40;586.40;;;2.40;99.90;;;;;;5011870;28;20462;-64
2023/12/08 03:48:07;;;;;;;693.57;664.57;;;2.50;99.90;;;;;;5011501;28;20536;-64
2023/12/08 03:50:36;;;;;;;709.90;679.73;;;2.40;99.90;;;;;;5011700;28;20449;-64
2023/12/08 03:53:02;;;;;;;747.53;714.77;;;2.40;99.90;;;;;;5011587;28;20507;-64
2023/12/08 03:55:29;;;;;;;795.93;759.87;;;2.40;99.90;;;;;;5011730;28;20818;-64
2023/12/08 03:57:56;;;;;;;833.80;794.67;;;2.40;99.90;;;;;;5011474;28;20511;-64
2023/12/08 04:00:23;;;;;;;844.23;804.37;;;2.40;99.90;;;;;;5011506;28;20519;-64
2023/12/08 04:02:50;;;;;;;882.00;836.70;;;2.40;99.90;;;;;;5011068;28;20490;-64
2023/12/08 04:05:17;;;;;;;898.40;850.10;;;2.40;99.90;;;;;;5011843;28;20457;-64
2023/12/08 04:07:45;;;;;;;905.10;855.27;;;2.30;99.90;;;;;;5011632;28;20451;-64
2023/12/08 04:10:12;;;;;;;909.70;857.20;;;2.30;99.90;;;;;;5011541;28;20451;-63
2023/12/08 04:12:39;;;;;;;921.47;866.57;;;2.30;99.90;;;;;;5011200;28;21032;-63
2023/12/08 04:15:07;;;;;;;909.13;856.87;;;2.30;99.90;;;;;;5011557;28;20556;-63
2023/12/08 04:17:34;;;;;;;920.43;866.67;;;2.30;99.90;;;;;;5012006;28;20459;-63
2023/12/08 04:20:01;;;;;;;930.10;872.80;;;2.30;99.90;;;;;;5015268;28;20445;-63
2023/12/08 04:22:28;;;;;;;922.83;866.97;;;2.30;99.90;;;;;;5015183;28;20747;-63
2023/12/08 04:24:56;;;;;;;895.97;847.87;;;2.30;99.90;;;;;;5015396;28;20485;-63
2023/12/08 04:27:23;;;;;;;891.47;844.80;;;2.30;99.90;;;;;;5015177;28;20453;-63
2023/12/08 04:29:50;;;;;;;903.67;853.87;;;2.40;99.90;;;;;;5015204;28;20461;-63
2023/12/08 04:32:17;;;;;;;890.87;843.30;;;2.30;99.90;;;;;;5014686;28;20532;-63
2023/12/08 04:34:44;;;;;;;874.60;830.63;;;2.40;99.90;;;;;;5015431;28;20453;-63
2023/12/08 04:37:11;;;;;;;866.83;822.97;;;2.40;99.90;;;;;;5015092;28;20563;-63
2023/12/08 04:39:37;;;;;;;887.67;840.97;;;2.40;99.90;;;;;;5015033;28;20948;-63
2023/12/08 04:42:07;;;;;;;904.67;854.90;;;2.30;99.90;;;;;;5014653;28;20480;-63
2023/12/08 04:44:34;;;;;;;914.83;861.17;;;2.30;99.90;;;;;;5014810;28;20460;-63
2023/12/08 04:47:01;;;;;;;915.73;861.87;;;2.30;99.90;;;;;;5014945;28;20537;-63
2023/12/08 04:49:28;;;;;;;925.80;868.30;;;2.30;99.90;;;;;;5015056;28;20443;-63
2023/12/08 04:51:54;;;;;;;934.30;872.43;;;2.30;99.90;;;;;;5014647;28;20466;-63
2023/12/08 04:54:21;;;;;;;937.17;871.80;;;2.30;99.90;;;;;;5014829;28;20483;-63
2023/12/08 04:56:48;;;;;;;932.63;864.60;;;2.30;99.90;;;;;;5014346;28;20541;-63
2023/12/08 04:59:16;;;;;;;933.83;863.10;;;2.30;99.90;;;;;;5014361;28;20818;-63
2023/12/08 05:01:43;;;;;;;927.47;854.50;;;2.20;99.90;;;;;;5014593;28;20453;-63
2023/12/08 05:04:10;;;;;;;913.73;840.03;;;2.30;99.90;;;;;;5014458;28;20541;-63
2023/12/08 05:06:37;;;;;;;910.10;835.13;;;2.30;99.90;;;;;;5014853;28;20450;-63
2023/12/08 05:09:04;;;;;;;910.43;832.17;;;2.30;99.90;;;;;;5014574;28;20820;-63
2023/12/08 05:11:31;;;;;;;904.90;826.90;;;2.30;99.90;;;;;;5014163;28;20824;-63
2023/12/08 05:13:58;;;;;;;912.57;833.50;;;2.30;99.90;;;;;;5014461;28;20522;-63
2023/12/08 05:16:26;;;;;;;920.47;840.80;;;2.30;99.90;;;;;;5014464;28;20458;-63
2023/12/08 05:18:53;;;;;;;937.87;856.20;;;2.30;99.90;;;;;;5014466;28;20461;-63
2023/12/08 05:21:20;;;;;;;926.77;844.60;;;2.30;99.90;;;;;;5013999;28;20485;-63
2023/12/08 05:23:48;;;;;;;907.83;826.97;;;2.30;99.90;;;;;;5014071;28;20486;-63
2023/12/08 05:26:15;;;;;;;921.60;838.50;;;2.30;99.90;;;;;;5013898;28;20457;-63
2023/12/08 05:28:42;;;;;;;933.60;849.43;;;2.30;99.90;;;;;;5014125;28;20449;-63
2023/12/08 05:31:08;;;;;;;949.93;864.77;;;2.30;99.90;;;;;;5014197;28;20527;-63
2023/12/08 05:33:37;;;;;;;930.53;847.00;;;2.30;99.90;;;;;;5014059;28;20453;-62
2023/12/08 05:36:04;;;;;;;945.13;862.10;;;2.30;99.90;;;;;;5013821;28;20950;-62
2023/12/08 05:38:31;;;;;;;937.87;854.20;;;2.30;99.90;;;;;;5013930;28;20876;-62
2023/12/08 05:40:58;;;;;;;933.50;850.30;;;2.30;99.90;;;;;;5013778;28;21005;-62
2023/12/08 05:43:25;;;;;;;953.77;870.60;;;2.30;99.90;;;;;;5013693;28;20482;-62
2023/12/08 05:45:52;;;;;;;961.80;878.63;;;2.30;99.90;;;;;;5013786;28;20453;-62
2023/12/08 05:48:19;;;;;;;949.90;867.93;;;2.30;99.90;;;;;;5013824;28;20459;-62
2023/12/08 05:50:47;;;;;;;936.07;855.20;;;2.30;99.90;;;;;;5013810;28;20504;-62
2023/12/08 05:53:14;;;;;;;943.47;862.33;;;2.40;99.90;;;;;;5013179;28;20814;-62
2023/12/08 05:55:41;;;;;;;933.70;853.30;;;2.30;99.90;;;;;;5013835;28;20456;-62
2023/12/08 05:58:08;;;;;;;928.73;848.43;;;2.40;99.90;;;;;;5013728;28;20459;-62
2023/12/08 06:00:35;;;;;;;939.70;859.53;;;2.40;99.90;;;;;;5013553;28;20784;-62
2023/12/08 06:03:02;;;;;;;937.70;856.80;;;2.40;99.90;;;;;;5012858;28;20474;-62
2023/12/08 06:05:28;;;;;;;956.17;874.50;;;2.40;99.90;;;;;;5013524;28;20485;-62
2023/12/08 06:07:57;;;;;;;946.20;866.80;;;2.40;99.90;;;;;;5013028;28;20461;-62
2023/12/08 06:10:24;;;;;;;945.17;865.10;;;2.40;99.90;;;;;;5013541;28;20538;-62
2023/12/08 06:12:52;;;;;;;950.50;871.70;;;2.40;99.90;;;;;;5013080;28;20441;-62
2023/12/08 06:15:19;;;;;;;947.67;869.70;;;2.40;99.90;;;;;;5013319;28;20454;-62
2023/12/08 06:17:46;;;;;;;944.23;867.43;;;2.40;99.90;;;;;;5012952;28;20451;-62
2023/12/08 06:20:14;;;;;;;942.87;867.07;;;2.50;99.90;;;;;;5013189;28;20456;-63
2023/12/08 06:22:42;;;;;;;935.80;861.10;;;2.50;99.90;;;;;;5012650;28;20488;-62
2023/12/08 06:25:11;;;;;;;938.77;863.80;;;2.50;99.90;;;;;;5013039;28;20540;-62
2023/12/08 06:27:38;;;;;;;940.67;866.37;;;2.50;99.90;;;;;;5012985;28;20454;-63
2023/12/08 06:30:07;;;;;;;944.43;871.00;;;2.50;99.90;;;;;;5012087;28;20545;-63
2023/12/08 06:32:35;;;;;;;938.00;866.10;;;2.50;99.90;;;;;;5012650;28;20805;-63
2023/12/08 06:35:02;;;;;;;939.20;866.80;;;2.50;99.90;;;;;;5012773;28;20943;-63
2023/12/08 06:37:29;;;;;;;938.57;867.83;;;2.50;99.90;;;;;;5012705;28;20830;-63
2023/12/08 06:39:56;;;;;;;938.30;867.47;;;2.60;99.90;;;;;;5012193;28;20505;-63
2023/12/08 06:42:24;;;;;;;932.37;863.00;;;2.60;99.90;;;;;;5012424;28;20871;-63
2023/12/08 06:44:51;;;;;;;929.97;861.57;;;2.60;99.90;;;;;;5012569;28;20942;-63
2023/12/08 06:47:18;;;;;;;925.23;858.20;;;2.60;99.90;;;;;;5012444;28;20455;-63
2023/12/08 06:49:45;;;;;;;932.03;862.67;;;2.60;99.90;;;;;;5012565;28;20483;-63
2023/12/08 06:52:11;;;;;;;933.43;865.30;;;2.60;99.90;;;;;;5012285;28;20510;-63
2023/12/08 06:54:38;;;;;;;934.07;866.23;;;2.60;99.90;;;;;;5012664;28;20824;-63
2023/12/08 06:57:06;;;;;;;924.10;855.10;;;2.60;99.90;;;;;;5012457;28;20912;-63
2023/12/08 06:59:34;;;;;;;920.50;849.40;;;2.60;99.90;;;;;;5012334;28;20459;-63
2023/12/08 07:02:01;;;;;;;913.87;844.17;;;2.70;99.90;;;;;;5011931;28;20818;-63
2023/12/08 07:04:28;;;;;;;914.40;843.77;;;2.70;99.90;;;;;;5012550;28;20821;-63
2023/12/08 07:06:55;;;;;;;916.77;846.00;;;2.70;99.90;;;;;;5012147;28;20452;-63
2023/12/08 07:09:22;;;;;;;913.77;842.87;;;2.70;99.90;;;;;;5012219;28;20459;-63
2023/12/08 07:11:49;;;;;;;919.37;850.37;;;2.70;99.90;;;;;;5011826;28;20453;-63
2023/12/08 07:14:15;;;;;;;924.07;853.20;;;2.70;99.90;;;;;;5012182;28;20450;-64
2023/12/08 07:16:44;;;;;;;928.20;857.33;;;2.70;99.90;;;;;;5011822;28;20451;-63
2023/12/08 07:19:12;;;;;;;917.70;845.13;;;2.70;99.90;;;;;;5012013;28;20463;-63
2023/12/08 07:21:42;;;;;;;916.20;844.37;;;2.70;99.90;;;;;;5011749;28;20470;-63
2023/12/08 07:24:09;;;;;;;913.53;841.33;;;2.70;99.90;;;;;;5012120;28;20488;-63
2023/12/08 07:26:36;;;;;;;921.33;847.73;;;2.80;99.90;;;;;;5011847;28;20488;-63
2023/12/08 07:29:03;;;;;;;930.70;857.00;;;2.80;99.90;;;;;;5011418;28;20528;-63
2023/12/08 07:31:30;;;;;;;919.70;845.60;;;2.80;99.90;;;;;;5011897;28;20448;-63
2023/12/08 07:33:58;;;;;;;930.77;855.67;;;2.80;99.90;;;;;;5011847;28;20530;-63
2023/12/08 07:36:25;;;;;;;899.93;824.07;;;2.80;99.90;;;;;;5011931;28;20751;-63
2023/12/08 07:38:52;;;;;;;893.60;818.30;;;2.80;99.90;;;;;;5011917;28;20983;-63
2023/12/08 07:41:19;;;;;;;884.97;807.83;;;2.80;99.90;;;;;;5011619;28;20459;-63
2023/12/08 07:43:48;;;;;;;893.77;815.37;;;2.90;99.90;;;;;;5012022;28;20478;-63
2023/12/08 07:46:15;;;;;;;888.37;809.83;;;2.90;99.90;;;;;;5011656;28;20451;-63
2023/12/08 07:48:42;;;;;;;925.63;846.77;;;2.90;99.90;;;;;;5012300;28;20462;-63
2023/12/08 07:51:10;;;;;;;908.37;829.57;;;2.90;99.90;;;;;;5011448;28;20455;-63
2023/12/08 07:53:40;;;;;;;905.40;827.53;;;3.00;99.90;;;;;;5008404;28;20490;-63
2023/12/08 07:56:07;;;;;;;902.40;826.40;;;3.00;99.90;;;;;;5010619;28;20532;-64
2023/12/08 07:58:34;;;;;;;889.20;813.83;;;3.00;99.90;;;;;;5010903;28;20456;-64
2023/12/08 08:01:01;;;;;;;891.53;814.07;;;3.00;99.90;;;;;;5011049;28;20462;-64
2023/12/08 08:03:28;;;;;;;894.77;819.00;;;3.00;99.90;;;;;;5010413;28;21025;-64
2023/12/08 08:05:55;;;;;;;879.80;803.30;;;3.00;99.90;;;;;;5010533;28;20546;-64
2023/12/08 08:08:23;;;;;;;879.17;802.90;;;3.10;99.90;;;;;;5010968;28;20598;-64
2023/12/08 08:10:50;;;;;;;886.50;811.30;;;3.10;99.90;;;;;;5010580;28;20845;-64
2023/12/08 08:13:17;;;;;;;883.37;807.50;;;3.10;99.90;;;;;;5010305;28;20491;-64
2023/12/08 08:15:44;;;;;;;874.87;799.17;;;3.10;99.90;;;;;;5010798;28;20530;-64
2023/12/08 08:18:11;;;;;;;882.63;806.57;;;3.10;99.90;;;;;;5010798;28;20836;-64
2023/12/08 08:20:38;;;;;;;878.40;803.23;;;3.10;99.90;;;;;;5010693;28;20532;-64
2023/12/08 08:23:05;;;;;;;885.60;810.33;;;3.20;99.90;;;;;;5010403;28;20452;-64
2023/12/08 08:25:33;;;;;;;889.53;815.73;;;3.20;99.90;;;;;;5010780;28;20814;-64
2023/12/08 08:28:00;;;;;;;884.93;810.93;;;3.20;99.90;;;;;;5010890;28;20804;-64
2023/12/08 08:30:27;;;;;;;881.10;806.10;;;3.20;99.90;;;;;;5010919;28;20449;-64
2023/12/08 08:32:54;;;;;;;877.80;803.17;;;3.20;99.90;;;;;;5010627;28;20460;-64
2023/12/08 08:35:21;;;;;;;872.63;799.40;;;3.20;99.90;;;;;;5010926;28;20451;-64
2023/12/08 08:37:48;;;;;;;865.13;790.17;;;3.30;99.90;;;;;;5010270;28;20472;-64
2023/12/08 08:40:16;;;;;;;868.33;794.10;;;3.30;99.90;;;;;;5010411;28;20808;-64
2023/12/08 08:42:44;;;;;;;872.47;797.90;;;3.30;99.90;;;;;;5010391;28;20799;-64
2023/12/08 08:45:11;;;;;;;872.67;797.73;;;3.40;99.90;;;;;;5010483;28;20519;-64
2023/12/08 08:47:39;;;;;;;870.60;796.03;;;3.40;99.90;;;;;;5010469;28;20488;-64
2023/12/08 08:50:07;;;;;;;868.33;792.63;;;3.40;99.90;;;;;;5010548;28;20906;-63
2023/12/08 08:52:35;;;;;;;870.97;794.10;;;3.40;99.90;;;;;;5009857;28;20544;-63
2023/12/08 08:55:03;;;;;;;865.13;788.30;;;3.40;99.90;;;;;;5010662;28;20440;-63
2023/12/08 08:57:30;;;;;;;866.07;789.17;;;3.40;99.90;;;;;;5010931;28;20452;-63
2023/12/08 08:59:58;;;;;;;872.47;793.77;;;3.40;99.90;;;;;;5010091;28;20959;-64
2023/12/08 09:02:25;;;;;;;886.50;806.70;;;3.40;99.90;;;;;;5010270;28;20931;-63
2023/12/08 09:04:52;;;;;;;899.35;813.63;;;3.40;99.90;;;;;;5029184;28;20511;-61
2023/12/08 09:07:19;;;;;;;885.73;803.97;;;3.40;99.90;;;;;;5036647;28;20201;-61
2023/12/08 09:09:46;;;;;;;886.40;804.77;;;3.50;99.90;;;;;;5036687;28;20634;-62
2023/12/08 09:12:13;;;;;;;890.37;807.93;;;3.50;99.90;;;;;;5035745;28;20793;-64
2023/12/08 09:14:40;;;;;;;894.40;810.83;;;3.50;99.90;;;;;;5033091;28;20866;-65
2023/12/08 09:17:08;;;;;;;894.83;809.67;;;3.50;99.90;;;;;;5034100;28;20820;-65
2023/12/08 09:19:35;;;;;;;901.07;816.73;;;3.50;99.90;;;;;;5033917;28;20523;-65
2023/12/08 09:22:03;;;;;;;887.73;802.60;;;3.50;99.90;;;;;;5033764;28;20448;-65
2023/12/08 09:24:30;;;;;;;887.43;800.47;;;3.60;99.90;;;;;;5033987;28;20545;-65
2023/12/08 09:26:56;;;;;;;890.80;803.90;;;3.60;99.90;;;;;;5034103;28;20522;-65
2023/12/08 09:29:23;;;;;;;892.17;804.67;;;3.60;99.90;;;;;;5033935;28;20455;-65
2023/12/08 09:31:50;;;;;;;903.33;816.17;;;3.60;99.90;;;;;;5033568;28;20831;-65
2023/12/08 09:34:18;;;;;;;895.40;807.10;;;3.60;99.90;;;;;;5033665;28;20446;-65
2023/12/08 09:36:45;;;;;;;898.30;809.00;;;3.70;99.90;;;;;;5034021;28;20788;-62
2023/12/08 09:39:12;;;;;;;890.43;802.13;;;3.70;99.90;;;;;;5033842;28;20452;-62
2023/12/08 09:41:41;;;;;;;895.23;806.10;;;3.70;99.90;;;;;;5033405;28;20557;-62
2023/12/08 09:44:12;;;;;;;887.20;798.30;;;3.70;99.90;;;;;;5033610;28;20489;-62
2023/12/08 09:46:43;;;;;;;897.37;807.27;;;3.80;99.90;;;;;;5033473;28;20454;-62
2023/12/08 09:49:17;;;;;;;909.20;819.20;;;3.80;99.90;;;;;;5034008;28;20476;-62
2023/12/08 09:51:46;;;;;;;908.73;820.40;;;3.90;99.90;;;;;;5033490;28;20968;-62
2023/12/08 09:54:13;;;;;;;907.53;818.07;;;3.90;99.90;;;;;;5033776;28;20536;-62
2023/12/08 09:56:40;;;;;;;907.27;816.30;;;3.90;99.90;;;;;;5033394;28;20556;-62
2023/12/08 09:59:08;;;;;;;906.70;816.30;;;3.90;99.90;;;;;;5033105;28;20539;-63
2023/12/08 10:01:35;;;;;;;907.97;817.00;;;4.00;99.90;;;;;;5033295;28;20543;-63
2023/12/08 10:04:02;;;;;;;907.50;816.30;;;4.00;99.90;;;;;;5033530;28;21178;-63
2023/12/08 10:06:30;;;;;;;908.00;817.20;;;4.10;99.90;;;;;;5033216;28;20548;-63
2023/12/08 10:09:00;;;;;;;906.73;816.57;;;4.10;99.90;;;;;;5033269;28;20459;-63
2023/12/08 10:11:27;;;;;;;898.90;808.70;;;4.20;99.90;;;;;;5032780;28;20452;-63
2023/12/08 10:13:54;;;;;;;895.60;805.70;;;4.20;99.90;;;;;;5033124;28;20543;-63
2023/12/08 10:16:23;;;;;;;888.00;798.97;;;4.30;99.90;;;;;;5032218;28;20507;-63
2023/12/08 10:18:50;;;;;;;894.73;806.23;;;4.30;99.90;;;;;;5032809;28;20455;-64
2023/12/08 10:21:19;;;;;;;899.30;811.90;;;4.30;99.90;;;;;;5032792;28;20456;-64
2023/12/08 10:23:47;;;;;;;892.57;805.20;;;4.30;99.90;;;;;;5032804;28;20451;-64
2023/12/08 10:26:17;;;;;;;890.27;803.77;;;4.30;99.90;;;;;;5032597;28;20446;-64
2023/12/08 10:28:44;;;;;;;883.67;797.17;;;4.30;99.90;;;;;;5033049;28;20459;-64
2023/12/08 10:31:11;;;;;;;869.07;782.60;;;4.30;99.90;;;;;;5032725;28;20872;-64
2023/12/08 10:33:40;;;;;;;876.20;788.33;;;4.40;99.90;;;;;;5032734;28;20893;-64
2023/12/08 10:36:07;;;;;;;865.37;778.67;;;4.40;99.90;;;;;;5032802;28;20974;-64
2023/12/08 10:38:35;;;;;;;870.40;783.80;;;4.50;99.90;;;;;;5032948;28;20448;-65
2023/12/08 10:41:04;;;;;;;870.47;783.80;;;4.50;99.90;;;;;;5032650;28;20444;-64
2023/12/08 10:43:33;;;;;;;869.70;783.20;;;4.60;99.90;;;;;;5033734;28;20449;-65
2023/12/08 10:46:01;;;;;;;871.37;785.23;;;4.70;99.90;;;;;;5034628;28;20502;-65
2023/12/08 10:48:28;;;;;;;854.40;771.17;;;4.80;99.90;;;;;;5034308;28;20449;-65
2023/12/08 10:50:55;;;;;;;856.33;773.07;;;4.80;99.90;;;;;;5034267;28;20459;-65
2023/12/08 10:53:22;;;;;;;855.77;773.30;;;4.80;99.90;;;;;;5033187;28;20454;-65
2023/12/08 10:55:53;;;;;;;857.17;775.10;;;4.90;99.90;;;;;;5034345;28;20450;-65
2023/12/08 10:58:22;;;;;;;856.87;775.97;;;4.90;99.90;;;;;;5034616;28;20535;-65
2023/12/08 11:00:52;;;;;;;853.33;772.73;;;4.90;99.90;;;;;;5034846;28;20556;-65
2023/12/08 11:03:21;;;;;;;854.63;775.40;;;4.90;99.90;;;;;;5032992;28;20452;-65
2023/12/08 11:05:58;;;;;;;849.83;771.17;;;4.90;99.90;;;;;;5034433;28;20838;-64
2023/12/08 11:08:26;;;;;;;848.63;768.93;;;5.00;99.90;;;;;;5034179;28;20923;-65
2023/12/08 11:10:57;;;;;;;849.67;772.20;;;5.00;99.90;;;;;;5034412;28;20808;-64
2023/12/08 11:13:28;;;;;;;853.87;775.97;;;5.10;99.90;;;;;;5033046;28;20451;-64
2023/12/08 11:16:18;;;;;;;853.33;776.20;;;5.10;99.90;;;;;;5034348;28;20433;-64
2023/12/08 11:18:46;;;;;;;865.60;788.00;;;5.10;99.90;;;;;;5034829;28;20440;-64
2023/12/08 11:21:13;;;;;;;862.83;784.30;;;5.00;99.90;;;;;;5034168;28;20458;-64
2023/12/08 11:23:42;;;;;;;861.60;784.20;;;5.10;99.90;;;;;;5033010;28;20535;-64
2023/12/08 11:26:20;;;;;;;859.03;781.67;;;5.10;99.90;;;;;;5033918;28;20480;-64
2023/12/08 11:29:03;;;;;;;862.90;784.70;;;5.10;99.90;;;;;;5034136;28;20437;-64
2023/12/08 11:31:38;;;;;;;865.77;786.10;;;5.10;99.90;;;;;;5033936;28;20438;-64
2023/12/08 11:34:11;;;;;;;870.93;789.90;;;5.20;99.90;;;;;;5032992;28;20464;-64
2023/12/08 11:36:43;;;;;;;868.77;789.80;;;5.20;99.90;;;;;;5033738;28;20972;-64
2023/12/08 11:39:46;;;;;;;867.50;788.77;;;5.30;99.90;;;;;;5034031;28;20438;-64
2023/12/08 11:42:15;;;;;;;872.40;793.40;;;5.30;99.90;;;;;;5031473;28;20494;-64
2023/12/08 11:44:43;;;;;;;880.83;800.97;;;5.30;99.90;;;;;;5034628;28;20476;-64
2023/12/08 11:47:14;;;;;;;887.30;806.43;;;5.30;99.90;;;;;;5033904;28;20849;-64
2023/12/08 11:49:44;;;;;;;897.33;815.13;;;5.30;99.90;;;;;;5033622;28;20878;-64
2023/12/08 11:52:16;;;;;;;904.47;821.83;;;5.40;99.90;;;;;;5032594;28;20459;-63
2023/12/08 11:55:07;;;;;;;897.93;815.23;;;5.40;99.90;;;;;;5033991;28;20539;-63
2023/12/08 11:57:36;;;;;;;902.23;818.53;;;5.40;99.90;;;;;;5033434;28;20922;-63
2023/12/08 12:00:07;;;;;;;895.50;810.90;;;5.40;99.90;;;;;;5033345;28;20448;-63
2023/12/08 12:02:35;;;;;;;903.37;818.70;;;5.40;99.90;;;;;;5032340;28;20460;-63
2023/12/08 12:05:06;;;;;;;904.00;819.03;;;5.40;99.90;;;;;;5033610;28;20481;-63
2023/12/08 12:07:33;;;;;;;921.93;835.53;;;5.40;99.90;;;;;;5033708;28;20438;-63
2023/12/08 12:10:03;;;;;;;931.87;842.07;;;5.40;99.90;;;;;;5033614;28;20807;-63
2023/12/08 12:12:33;;;;;;;939.67;848.27;;;5.40;99.90;;;;;;5032347;28;20456;-63
2023/12/08 12:15:03;;;;;;;926.90;836.40;;;5.50;99.90;;;;;;5033253;28;20448;-63
2023/12/08 12:17:30;;;;;;;921.07;829.50;;;5.50;99.90;;;;;;5034358;28;20463;-63
2023/12/08 12:19:59;;;;;;;915.70;825.30;;;5.50;99.90;;;;;;5033568;28;20821;-63
2023/12/08 12:22:26;;;;;;;914.97;824.60;;;5.50;99.90;;;;;;5032506;28;20462;-63
2023/12/08 12:24:52;;;;;;;914.23;824.90;;;5.60;99.90;;;;;;5033452;28;20477;-64
2023/12/08 12:27:19;;;;;;;921.53;829.67;;;5.60;99.90;;;;;;5033484;28;20474;-63